KCRE/CRE METAR and TAF weather

Enter ICAO airport designator
Station Type Date Time Source
KCRE METAR 2024/04/18 05:53 UTC NOAA

KCRE 180553Z AUTO 27003KT 10SM CLR 21/17 A3006 RMK AO1 SLP179 T02060167 10217 20206 50003


Station Type Date Time Source
KCRE Decoded METAR 2024/04/18 05:53 UTC NOAA

N. MYRTLE BCH.GRAND STRAND, SC, United States (KCRE) 33-49N 078-43W 10M
Apr 18, 2024 - 01:53 AM EDT / 2024.04.18 0553 UTC
Wind: from the W (270 degrees) at 3 MPH (3 KT):0
Visibility: 10 mile(s):0
Sky conditions: clear
Temperature: 69.1 F (20.6 C)
Dew Point: 62.1 F (16.7 C)
Relative Humidity: 78%
Pressure (altimeter): 30.06 in. Hg (1017 hPa)
Pressure tendency: 0.01 inches (0.3 hPa) higher than three hours ago
ob: KCRE 180553Z AUTO 27003KT 10SM CLR 21/17 A3006 RMK AO1 SLP179 T02060167 10217 20206 50003
cycle: 6

Station Type Date Time Source
KCRE TAF 2024/04/18 06:22 UTC NOAA